Estación Meteorológica Peña el Pijo (Robertgarden) [ 10/20/18 08:20:32 CEST ]

Fecha Hora Presion(HPa) Temp (°C) Humedad % Rocio (°C) Viento ( m/s) Direccion Lluvia 1Hora(mm) Lluvia 24H(mm) LLuvia Total(mm)
2018-Jun-18 01:01:57 1014.600 14.6 70 9.2         266.25
2018-Jun-18 02:01:53 1014.500 13.9 71 8.7         266.25
2018-Jun-18 03:01:39 1014.300 13.7 74 9.1         266.25
2018-Jun-18 04:01:39 1014.200 12.8 76 8.6         266.25
2018-Jun-18 05:10:04 1013.700 12.1 77 8.2         266.25
2018-Jun-18 06:01:38 1013.700 12.4 78 8.7         266.25
2018-Jun-18 07:01:52 1014.100 11.8 78 8.1         266.25
2018-Jun-18 08:01:49 1014.300 14.1 81 10.9         266.25
2018-Jun-18 09:01:48 1014.200 20.4 63 13.1         266.25
2018-Jun-18 10:01:56 1014.000 26.6 44 13.3         266.25
2018-Jun-18 11:01:48 1013.900 28.3 38 12.6         266.25
2018-Jun-18 12:01:42 1013.900 30.3 35 13.0         266.25
2018-Jun-18 13:01:38 1013.600 32.2 32 13.4         266.25
2018-Jun-18 14:01:40 1013.200 33.1 28 12.1         266.25
2018-Jun-18 15:01:39 1012.800 32.9 28 11.9         266.25
2018-Jun-18 16:01:31 1012.200 33.6 27 11.8 1.6 S     266.25
2018-Jun-18 17:01:44 1012.000 33.3 28 12.2         266.25
2018-Jun-18 18:01:39 1011.800 32.2 30 12.5         266.25
2018-Jun-18 19:01:30 1011.500 30.4 32 11.8         266.25
2018-Jun-18 20:01:40 1012.000 26.7 40 12.0         266.25
2018-Jun-18 21:01:48 1012.400 23.6 46 11.2         266.25
2018-Jun-18 22:01:51 1012.800 21.2 51 10.7         266.25
2018-Jun-18 23:01:42 1013.400 19.9 56 10.8 1.1 NNE     266.25

Temperatura Máxima:33°    Temperatura Mínima:11°
Presión Máxima:1014.600 Hpa    Presión Mínima:1011.500 Hpa


Volver